createdAt,value
2022-08-08T00:00:52.901Z,96267.72
2022-08-08T00:02:33.855Z,96270.22
2022-08-08T00:04:48.945Z,96277.03
2022-08-08T00:07:12.504Z,96282.88
2022-08-08T00:09:22.357Z,96276.59
2022-08-08T00:11:46.790Z,96236.66
2022-08-08T00:14:15.692Z,96278.16
2022-08-08T00:16:28.881Z,96273.69
2022-08-08T00:18:40.794Z,96250.47
2022-08-08T00:20:50.725Z,96288.88
2022-08-08T00:22:58.013Z,96125.13
2022-08-08T00:25:06.184Z,96294.31
2022-08-08T00:27:14.098Z,96294.78
2022-08-08T00:29:44.802Z,96167.31
2022-08-08T00:32:28.513Z,96290.69
2022-08-08T00:35:04.757Z,96296.72
2022-08-08T00:37:47.443Z,96247.56
2022-08-08T00:41:08.926Z,96300.13
2022-08-08T00:42:46.049Z,96258.53
2022-08-08T00:45:35.165Z,96290.22
2022-08-08T00:48:30.203Z,96289.13
2022-08-08T00:51:21.997Z,96272.28
2022-08-08T00:54:13.382Z,96290.03
2022-08-08T00:56:44.879Z,96294.06
2022-08-08T00:59:44.638Z,96279.91
2022-08-08T01:03:15.192Z,96287.97
2022-08-08T01:05:04.253Z,96221.22
2022-08-08T01:07:56.490Z,96293.63
2022-08-08T01:10:44.492Z,96300.56
2022-08-08T01:13:37.989Z,96288.63
2022-08-08T01:16:17.371Z,96289.72
2022-08-08T01:18:56.887Z,96294.47
2022-08-08T01:22:10.234Z,96294.47
2022-08-08T01:24:29.009Z,96305.72
2022-08-08T01:26:56.892Z,96314.00
2022-08-08T01:29:58.559Z,96314.41
2022-08-08T01:32:53.145Z,96290.03
2022-08-08T01:35:38.538Z,96252.59
2022-08-08T01:38:11.274Z,96194.50
2022-08-08T01:40:30.979Z,96257.63
2022-08-08T01:42:40.674Z,96302.88
2022-08-08T01:45:02.830Z,96305.16
2022-08-08T01:48:23.614Z,96288.38
2022-08-08T01:49:53.748Z,96272.16
2022-08-08T01:52:51.347Z,96314.69
2022-08-08T01:55:25.562Z,96333.09
2022-08-08T01:57:33.724Z,96299.78
2022-08-08T02:00:18.199Z,96309.38
2022-08-08T02:02:42.403Z,96306.53
2022-08-08T02:04:58.781Z,96302.72
2022-08-08T02:07:06.371Z,96234.19
2022-08-08T02:10:01.814Z,96305.28
2022-08-08T02:12:00.553Z,96299.66
2022-08-08T02:14:20.432Z,96289.66
2022-08-08T02:16:29.764Z,96245.66
2022-08-08T02:18:40.607Z,96246.06
2022-08-08T02:21:08.523Z,96291.81
2022-08-08T02:23:31.699Z,96206.16
2022-08-08T02:25:48.514Z,96234.63
2022-08-08T02:28:02.920Z,96279.59
2022-08-08T02:30:20.749Z,96296.81
2022-08-08T02:32:39.224Z,96291.19
2022-08-08T02:35:19.434Z,96285.47
2022-08-08T02:37:57.168Z,96222.28
2022-08-08T02:40:10.508Z,96211.75
2022-08-08T02:42:47.875Z,96196.69
2022-08-08T02:45:51.747Z,96204.09
2022-08-08T02:48:37.323Z,96258.66
2022-08-08T02:51:21.260Z,96291.28
2022-08-08T02:53:50.706Z,96293.97
2022-08-08T02:56:52.837Z,96296.38
2022-08-08T02:59:55.652Z,96297.94
2022-08-08T03:02:21.172Z,96307.13
2022-08-08T03:05:24.873Z,96299.03
2022-08-08T03:08:10.373Z,96105.94
2022-08-08T03:10:53.799Z,96289.59
2022-08-08T03:16:00.784Z,96299.38
2022-08-08T03:16:34.282Z,96294.38
2022-08-08T03:18:53.505Z,96293.75
2022-08-08T03:20:57.189Z,96295.69
2022-08-08T03:23:04.897Z,96299.84
2022-08-08T03:25:17.934Z,96307.66
2022-08-08T03:27:31.347Z,96298.28
2022-08-08T03:29:56.241Z,96304.03
2022-08-08T03:32:19.010Z,96308.31
2022-08-08T03:34:22.609Z,96297.38
2022-08-08T03:36:31.351Z,96284.25
2022-08-08T03:38:53.779Z,96300.94
2022-08-08T03:42:03.904Z,96313.47
2022-08-08T03:43:38.221Z,96309.16
2022-08-08T03:46:07.019Z,96315.41
2022-08-08T03:48:08.609Z,96307.72
2022-08-08T03:50:26.560Z,96277.31
2022-08-08T03:52:33.913Z,96308.22
2022-08-08T03:54:41.381Z,96318.03
2022-08-08T03:58:30.011Z,96314.00
2022-08-08T03:59:30.685Z,96324.31
2022-08-08T04:02:15.794Z,96281.16
2022-08-08T04:04:01.898Z,96284.78
2022-08-08T04:06:18.140Z,96329.16
2022-08-08T04:08:33.564Z,96333.72
2022-08-08T04:10:41.550Z,96335.75
2022-08-08T04:12:47.934Z,96329.78
2022-08-08T04:14:53.125Z,96332.78
2022-08-08T04:16:58.477Z,96342.19
2022-08-08T04:19:01.440Z,96322.88
2022-08-08T04:21:06.499Z,96344.94
2022-08-08T04:23:10.495Z,96339.97
2022-08-08T04:25:18.287Z,96346.53
2022-08-08T04:28:03.090Z,96348.75
2022-08-08T04:30:00.646Z,96345.84
2022-08-08T04:32:10.591Z,96343.53
2022-08-08T04:34:14.083Z,96346.56
2022-08-08T04:36:21.301Z,96338.97
2022-08-08T04:38:24.328Z,96347.38
2022-08-08T04:40:30.599Z,96343.94
2022-08-08T04:42:36.932Z,96347.06
2022-08-08T04:44:40.507Z,96345.25
2022-08-08T04:46:43.603Z,96326.97
2022-08-08T04:48:46.735Z,96354.63
2022-08-08T04:50:51.405Z,96353.63
2022-08-08T04:53:04.834Z,96355.75
2022-08-08T04:55:09.846Z,96357.38
2022-08-08T04:57:13.717Z,96320.72
2022-08-08T04:59:18.516Z,96365.88
2022-08-08T05:01:35.493Z,96365.16
2022-08-08T05:04:08.210Z,96371.69
2022-08-08T05:06:25.887Z,96332.16
2022-08-08T05:08:32.055Z,96382.28
2022-08-08T05:10:34.953Z,96375.59
2022-08-08T05:12:53.323Z,96372.91
2022-08-08T05:15:04.383Z,96367.47
2022-08-08T05:17:10.639Z,96368.28
2022-08-08T05:20:12.763Z,96285.72
2022-08-08T05:21:43.453Z,96378.41
2022-08-08T05:24:04.307Z,96377.28
2022-08-08T05:26:14.311Z,96375.63
2022-08-08T05:28:55.779Z,96381.03
2022-08-08T05:30:47.263Z,96313.44
2022-08-08T05:32:53.745Z,96386.78
2022-08-08T05:35:01.835Z,96363.88
2022-08-08T05:37:17.237Z,96389.41
2022-08-08T05:39:25.227Z,96388.81
2022-08-08T05:41:55.106Z,96392.56
2022-08-08T05:44:14.388Z,96391.44
2022-08-08T05:46:22.269Z,96353.06
2022-08-08T05:48:31.154Z,96383.84
2022-08-08T05:50:36.228Z,96388.66
2022-08-08T05:52:40.753Z,96388.59
2022-08-08T05:54:51.127Z,96397.56
2022-08-08T05:56:57.321Z,96387.47
2022-08-08T05:59:05.990Z,96399.59
2022-08-08T06:01:55.786Z,96240.56
2022-08-08T06:03:43.807Z,96405.66
2022-08-08T06:05:59.245Z,96258.38
2022-08-08T06:08:20.389Z,96412.53
2022-08-08T06:10:29.942Z,96383.88
2022-08-08T06:12:33.956Z,96416.19
2022-08-08T06:14:38.149Z,96407.41
2022-08-08T06:16:52.453Z,96417.16
2022-08-08T06:19:07.325Z,96418.09
2022-08-08T06:21:28.389Z,96420.66
2022-08-08T06:23:52.948Z,96428.66
2022-08-08T06:26:38.766Z,96431.31
2022-08-08T06:28:33.155Z,96431.19
2022-08-08T06:30:37.817Z,96428.03
2022-08-08T06:32:47.517Z,96427.47
2022-08-08T06:35:12.140Z,96434.69
2022-08-08T06:37:25.914Z,96435.34
2022-08-08T06:39:35.748Z,96430.41
2022-08-08T06:42:02.629Z,96430.13
2022-08-08T06:44:18.752Z,96435.66
2022-08-08T06:46:31.912Z,96443.25
2022-08-08T06:48:36.701Z,96432.63
2022-08-08T06:50:42.927Z,96441.22
2022-08-08T06:52:50.451Z,96411.31
2022-08-08T06:54:58.482Z,96441.69
2022-08-08T06:57:02.367Z,96436.03
2022-08-08T06:59:12.064Z,96448.13
2022-08-08T07:02:17.564Z,96448.03
2022-08-08T07:04:37.863Z,96451.16
2022-08-08T07:06:23.437Z,96278.91
2022-08-08T07:08:34.686Z,96456.06
2022-08-08T07:10:44.569Z,96453.44
2022-08-08T07:12:55.288Z,96455.16
2022-08-08T07:15:11.449Z,96450.72
2022-08-08T07:17:56.820Z,96415.09
2022-08-08T07:20:07.598Z,96454.47
2022-08-08T07:22:25.108Z,96461.03
2022-08-08T07:24:34.351Z,96460.72
2022-08-08T07:26:41.129Z,96454.72
2022-08-08T07:28:46.637Z,96467.00
2022-08-08T07:30:50.491Z,96464.91
2022-08-08T07:32:54.756Z,96407.16
2022-08-08T07:35:08.441Z,96460.09
2022-08-08T07:37:18.485Z,96458.97
2022-08-08T07:39:29.828Z,96463.50
2022-08-08T07:42:03.817Z,96473.72
2022-08-08T07:44:33.503Z,96468.88
2022-08-08T07:46:32.535Z,96461.66
2022-08-08T07:48:42.094Z,96466.50
2022-08-08T07:50:47.432Z,96465.75
2022-08-08T07:52:57.294Z,96465.81
2022-08-08T07:55:05.525Z,96462.25
2022-08-08T07:57:23.892Z,96434.16
2022-08-08T07:59:37.431Z,96348.94
2022-08-08T08:02:34.430Z,96477.72
2022-08-08T08:04:16.257Z,96482.41
2022-08-08T08:06:22.085Z,96475.63
2022-08-08T08:08:39.162Z,96477.75
2022-08-08T08:10:47.172Z,96485.06
2022-08-08T08:12:54.919Z,96479.81
2022-08-08T08:15:05.034Z,96475.50
2022-08-08T08:17:13.946Z,96086.34
2022-08-08T08:19:17.949Z,96482.66
2022-08-08T08:21:44.140Z,96477.63
2022-08-08T08:23:53.865Z,96464.91
2022-08-08T08:26:06.148Z,96488.53
2022-08-08T08:28:09.374Z,96480.50
2022-08-08T08:30:13.963Z,96472.44
2022-08-08T08:32:32.010Z,96479.69
2022-08-08T08:34:43.067Z,96488.41
2022-08-08T08:36:51.488Z,96484.03
2022-08-08T08:39:00.324Z,96481.44
2022-08-08T08:41:16.858Z,96485.66
2022-08-08T08:43:26.782Z,96405.28
2022-08-08T08:45:33.213Z,96492.09
2022-08-08T08:47:43.937Z,96484.13
2022-08-08T08:49:48.281Z,96483.75
2022-08-08T08:51:52.733Z,96486.47
2022-08-08T08:53:59.761Z,96399.06
2022-08-08T08:56:11.288Z,96479.63
2022-08-08T08:58:25.361Z,96483.13
2022-08-08T09:00:44.569Z,96482.31
2022-08-08T09:02:53.681Z,96478.78
2022-08-08T09:05:00.193Z,96483.47
2022-08-08T09:07:12.218Z,96469.53
2022-08-08T09:09:36.189Z,96480.69
2022-08-08T09:12:02.143Z,96484.16
2022-08-08T09:14:12.311Z,96471.47
2022-08-08T09:16:17.138Z,96438.91
2022-08-08T09:18:21.473Z,96489.13
2022-08-08T09:22:02.794Z,96482.16
2022-08-08T09:22:55.304Z,96481.97
2022-08-08T09:25:02.784Z,96475.69
2022-08-08T09:27:20.412Z,96483.09
2022-08-08T09:29:28.207Z,96464.94
2022-08-08T09:31:57.049Z,96465.78
2022-08-08T09:34:31.037Z,96474.06
2022-08-08T09:36:33.697Z,96477.84
2022-08-08T09:38:52.544Z,96426.69
2022-08-08T09:41:00.752Z,96476.69
2022-08-08T09:43:16.887Z,96467.88
2022-08-08T09:46:01.895Z,96360.47
2022-08-08T09:48:03.817Z,96483.03
2022-08-08T09:50:14.381Z,96483.56
2022-08-08T09:52:57.490Z,96458.06
2022-08-08T09:54:47.384Z,96464.03
2022-08-08T09:56:56.286Z,96472.28
2022-08-08T09:59:15.201Z,96475.63
2022-08-08T10:01:59.072Z,96425.66
2022-08-08T10:03:56.311Z,96468.56
2022-08-08T10:06:00.946Z,96468.59
2022-08-08T10:08:04.810Z,96461.69
2022-08-08T10:10:12.774Z,96481.28
2022-08-08T10:12:26.756Z,96468.03
2022-08-08T10:14:41.019Z,96462.03
2022-08-08T10:16:46.901Z,96468.53
2022-08-08T10:19:03.914Z,96436.91
2022-08-08T10:21:24.966Z,96456.59
2022-08-08T10:23:44.058Z,96454.50
2022-08-08T10:25:57.119Z,96458.13
2022-08-08T10:28:00.848Z,96468.03
2022-08-08T10:30:07.999Z,96464.06
2022-08-08T10:32:50.721Z,96456.41
2022-08-08T10:35:01.285Z,96462.13
2022-08-08T10:37:05.475Z,96449.84
2022-08-08T10:39:10.180Z,96415.94
2022-08-08T10:41:19.973Z,96458.56
2022-08-08T10:43:24.624Z,96461.75
2022-08-08T10:45:56.168Z,96352.38
2022-08-08T10:48:02.112Z,96284.50
2022-08-08T10:50:07.091Z,96348.19
2022-08-08T10:52:09.883Z,96460.78
2022-08-08T10:54:20.522Z,96455.75
2022-08-08T10:56:27.708Z,96448.34
2022-08-08T10:58:35.473Z,96445.41
2022-08-08T11:00:52.650Z,96394.22
2022-08-08T11:03:15.708Z,96445.34
2022-08-08T11:05:19.617Z,96422.69
2022-08-08T11:08:31.394Z,96448.28
2022-08-08T11:09:52.898Z,96446.53
2022-08-08T11:12:05.507Z,96454.84
2022-08-08T11:14:16.690Z,96442.41
2022-08-08T11:16:32.340Z,96446.72
2022-08-08T11:18:37.376Z,96440.28
2022-08-08T11:20:41.853Z,96443.94
2022-08-08T11:22:56.557Z,96438.28
2022-08-08T11:25:02.048Z,96429.19
2022-08-08T11:27:19.624Z,96441.06
2022-08-08T11:29:29.369Z,96435.69
2022-08-08T11:31:50.112Z,96441.47
2022-08-08T11:34:03.280Z,96445.47
2022-08-08T11:36:19.954Z,96402.53
2022-08-08T11:38:35.184Z,96433.31
2022-08-08T11:40:41.762Z,96432.91
2022-08-08T11:42:45.367Z,96428.16
2022-08-08T11:44:49.452Z,96435.19
2022-08-08T11:46:57.757Z,96434.25
2022-08-08T11:49:04.185Z,96322.50
2022-08-08T11:51:30.632Z,96423.28
2022-08-08T11:53:31.861Z,96421.69
2022-08-08T11:55:49.757Z,96425.63
2022-08-08T11:58:06.834Z,96423.72
2022-08-08T12:00:18.887Z,96422.16
2022-08-08T12:02:41.941Z,96418.28
2022-08-08T12:04:48.444Z,96420.31
2022-08-08T12:06:51.295Z,96405.97
2022-08-08T12:09:06.325Z,96403.59
2022-08-08T12:11:12.745Z,96406.06
2022-08-08T12:13:33.281Z,96414.63
2022-08-08T12:15:48.220Z,96339.97
2022-08-08T12:17:53.589Z,96414.19
2022-08-08T12:19:58.508Z,96412.06
2022-08-08T12:22:09.434Z,96372.34
2022-08-08T12:24:19.362Z,96407.91
2022-08-08T12:26:28.326Z,96406.66
2022-08-08T12:28:38.828Z,96408.03
2022-08-08T12:30:42.002Z,96407.63
2022-08-08T12:32:50.857Z,96365.84
2022-08-08T12:35:13.575Z,96356.59
2022-08-08T12:37:22.653Z,96408.88
2022-08-08T12:40:00.651Z,96403.34
2022-08-08T12:42:05.893Z,96408.94
2022-08-08T12:44:32.342Z,96402.03
2022-08-08T12:46:36.499Z,96386.22
2022-08-08T12:48:39.288Z,96388.47
2022-08-08T12:50:47.068Z,96331.97
2022-08-08T12:52:54.785Z,96348.00
2022-08-08T12:55:13.254Z,96400.06
2022-08-08T12:57:17.728Z,96317.97
2022-08-08T12:59:27.250Z,96353.78
2022-08-08T13:01:39.522Z,96372.84
2022-08-08T13:03:49.102Z,96382.09
2022-08-08T13:06:13.921Z,96398.25
2022-08-08T13:08:18.131Z,96369.56
2022-08-08T13:10:21.111Z,96389.09
2022-08-08T13:12:33.578Z,96399.09
2022-08-08T13:14:38.863Z,96399.31
2022-08-08T13:16:56.530Z,96398.66
2022-08-08T13:19:11.757Z,96388.59
2022-08-08T13:21:17.068Z,96361.94
2022-08-08T13:23:31.414Z,96396.44
2022-08-08T13:25:40.211Z,96396.50
2022-08-08T13:27:43.346Z,96388.66
2022-08-08T13:29:51.364Z,96395.91
2022-08-08T13:31:55.747Z,96388.16
2022-08-08T13:33:59.918Z,96385.94
2022-08-08T13:36:10.773Z,96394.47
2022-08-08T13:38:20.819Z,96375.88
2022-08-08T13:40:26.747Z,96371.91
2022-08-08T13:42:31.303Z,96379.13
2022-08-08T13:44:34.248Z,96365.91
2022-08-08T13:46:53.328Z,96375.13
2022-08-08T13:50:32.144Z,96368.75
2022-08-08T13:51:33.454Z,96378.31
2022-08-08T13:53:53.382Z,96369.16
2022-08-08T13:56:06.943Z,96371.97
2022-08-08T13:58:20.090Z,96365.53
2022-08-08T14:00:23.894Z,96366.25
2022-08-08T14:02:31.211Z,96284.91
2022-08-08T14:04:37.514Z,96365.56
2022-08-08T14:06:59.485Z,96360.78
2022-08-08T14:09:25.228Z,96353.22
2022-08-08T14:11:28.284Z,96349.97
2022-08-08T14:13:34.174Z,96363.53
2022-08-08T14:15:39.762Z,96295.38
2022-08-08T14:17:59.275Z,96373.47
2022-08-08T14:20:56.831Z,96356.59
2022-08-08T14:22:43.895Z,96296.78
2022-08-08T14:24:53.419Z,96323.31
2022-08-08T14:26:56.703Z,96354.81
2022-08-08T14:29:01.479Z,96260.41
2022-08-08T14:31:10.503Z,96353.94
2022-08-08T14:33:15.179Z,96308.16
2022-08-08T14:35:20.060Z,96352.41
2022-08-08T14:37:27.934Z,96359.94
2022-08-08T14:39:53.765Z,96163.88
2022-08-08T14:42:03.393Z,96362.47
2022-08-08T14:44:19.538Z,96252.94
2022-08-08T14:46:31.117Z,96361.22
2022-08-08T14:48:52.568Z,96350.38
2022-08-08T14:51:06.538Z,96346.66
2022-08-08T14:53:13.463Z,96336.94
2022-08-08T14:55:22.768Z,96199.16
2022-08-08T14:58:06.296Z,96248.34
2022-08-08T15:00:06.696Z,96345.56
2022-08-08T15:02:15.249Z,96333.41
2022-08-08T15:04:18.742Z,96269.56
2022-08-08T15:06:22.417Z,96334.31
2022-08-08T15:08:34.273Z,96338.69
2022-08-08T15:10:40.131Z,96338.44
2022-08-08T15:12:46.917Z,96335.34
2022-08-08T15:14:49.761Z,96340.97
2022-08-08T15:16:52.655Z,96333.63
2022-08-08T15:18:55.429Z,96333.00
2022-08-08T15:20:58.264Z,96183.94
2022-08-08T15:23:01.604Z,96305.44
2022-08-08T15:25:08.634Z,96334.13
2022-08-08T15:28:03.460Z,96337.75
2022-08-08T15:29:44.112Z,96325.00
2022-08-08T15:32:19.001Z,96329.31
2022-08-08T15:34:28.990Z,96332.16
2022-08-08T15:36:34.045Z,96332.75
2022-08-08T15:38:40.613Z,96314.72
2022-08-08T15:40:52.500Z,96333.13
2022-08-08T15:42:56.844Z,96332.28
2022-08-08T15:45:01.056Z,96335.13
2022-08-08T15:47:04.473Z,96318.44
2022-08-08T15:49:07.236Z,96327.19
2022-08-08T15:51:15.650Z,96325.81
2022-08-08T15:53:20.679Z,96316.16
2022-08-08T15:55:23.915Z,96317.25
2022-08-08T15:57:26.683Z,96323.38
2022-08-08T16:00:06.015Z,96294.63
2022-08-08T16:02:03.281Z,96313.22
2022-08-08T16:04:06.571Z,96322.50
2022-08-08T16:06:28.213Z,96314.53
2022-08-08T16:08:31.785Z,96315.53
2022-08-08T16:13:15.269Z,96278.56
2022-08-08T16:13:26.697Z,96307.13
2022-08-08T16:15:23.362Z,96318.06
2022-08-08T16:17:38.744Z,96312.50
2022-08-08T16:19:56.852Z,96306.13
2022-08-08T16:22:03.116Z,96312.63
2022-08-08T16:24:07.802Z,96315.84
2022-08-08T16:26:19.180Z,96314.81
2022-08-08T16:28:34.970Z,96274.59
2022-08-08T16:30:40.247Z,96310.34
2022-08-08T16:32:43.254Z,96320.44
2022-08-08T16:34:51.304Z,96312.78
2022-08-08T16:36:54.101Z,96314.13
2022-08-08T16:38:57.813Z,96321.38
2022-08-08T16:41:02.631Z,96315.47
2022-08-08T16:43:05.521Z,96258.53
2022-08-08T16:45:11.558Z,96308.81
2022-08-08T16:47:42.281Z,96306.19
2022-08-08T16:49:47.839Z,96282.06
2022-08-08T16:55:04.076Z,96316.53
2022-08-08T16:55:04.913Z,96295.34
2022-08-08T16:56:38.504Z,96311.34
2022-08-08T16:59:01.242Z,96310.56
2022-08-08T17:01:10.724Z,96317.91
2022-08-08T17:03:15.373Z,96300.50
2022-08-08T17:05:20.922Z,96306.88
2022-08-08T17:07:24.688Z,96318.34
2022-08-08T17:09:34.825Z,96306.28
2022-08-08T17:11:48.795Z,96312.44
2022-08-08T17:14:00.944Z,96291.41
2022-08-08T17:16:05.231Z,96284.66
2022-08-08T17:18:19.409Z,96313.25
2022-08-08T17:20:22.661Z,96310.81
2022-08-08T17:22:39.148Z,96206.41
2022-08-08T17:24:53.876Z,96296.69
2022-08-08T17:26:57.987Z,96316.91
2022-08-08T17:29:04.371Z,96320.78
2022-08-08T17:31:39.075Z,96305.41
2022-08-08T17:34:36.835Z,96325.44
2022-08-08T17:36:10.085Z,96324.84
2022-08-08T17:38:16.686Z,96323.31
2022-08-08T17:40:19.559Z,96332.47
2022-08-08T17:42:22.615Z,96281.31
2022-08-08T17:44:27.014Z,96226.44
2022-08-08T17:46:41.127Z,96329.09
2022-08-08T17:48:45.249Z,96331.41
2022-08-08T17:50:50.704Z,96326.91
2022-08-08T17:52:53.935Z,96208.13
2022-08-08T17:55:00.548Z,96328.41
2022-08-08T17:57:09.556Z,96331.41
2022-08-08T17:59:12.569Z,96328.31
2022-08-08T18:01:15.278Z,96335.84
2022-08-08T18:03:38.343Z,96315.44
2022-08-08T18:05:48.588Z,96338.94
2022-08-08T18:08:24.950Z,96290.66
2022-08-08T18:10:15.817Z,96286.09
2022-08-08T18:12:18.638Z,96328.09
2022-08-08T18:14:23.960Z,96350.63
2022-08-08T18:16:31.137Z,96350.75
2022-08-08T18:18:38.673Z,96360.22
2022-08-08T18:20:55.313Z,96352.03
2022-08-08T18:23:02.939Z,96351.84
2022-08-08T18:25:06.445Z,96353.19
2022-08-08T18:27:17.216Z,96195.81
2022-08-08T18:29:25.778Z,96339.44
2022-08-08T18:31:32.537Z,96353.38
2022-08-08T18:34:10.342Z,96314.53
2022-08-08T18:36:03.025Z,96361.09
2022-08-08T18:38:17.334Z,96359.50
2022-08-08T18:40:34.789Z,96367.00
2022-08-08T18:42:37.852Z,96377.94
2022-08-08T18:44:54.952Z,96373.59
2022-08-08T18:47:00.036Z,96373.78
2022-08-08T18:49:03.568Z,96376.56
2022-08-08T18:51:33.454Z,96243.22
2022-08-08T18:54:02.694Z,96381.22
2022-08-08T18:55:57.185Z,96387.47
2022-08-08T18:57:59.997Z,96387.69
2022-08-08T19:00:03.024Z,96391.19
2022-08-08T19:02:27.761Z,96342.94
2022-08-08T19:04:28.995Z,96400.31
2022-08-08T19:06:33.886Z,96413.53
2022-08-08T19:08:37.846Z,96414.84
2022-08-08T19:10:44.456Z,96417.22
2022-08-08T19:12:53.154Z,96159.63
2022-08-08T19:14:56.575Z,96390.84
2022-08-08T19:16:59.515Z,96340.38
2022-08-08T19:19:09.644Z,96422.59
2022-08-08T19:21:29.236Z,96286.22
2022-08-08T19:23:37.030Z,96366.47
2022-08-08T19:26:19.834Z,96446.69
2022-08-08T19:28:18.064Z,96429.63
2022-08-08T19:30:24.474Z,96443.53
2022-08-08T19:32:29.184Z,96439.31
2022-08-08T19:34:38.749Z,96402.28
2022-08-08T19:36:45.455Z,96443.97
2022-08-08T19:38:51.393Z,96440.41
2022-08-08T19:40:56.061Z,96440.97
2022-08-08T19:42:59.699Z,96293.91
2022-08-08T19:45:07.271Z,96371.41
2022-08-08T19:47:12.473Z,96455.22
2022-08-08T19:49:15.687Z,96459.56
2022-08-08T19:51:24.856Z,96404.78
2022-08-08T19:53:51.883Z,96461.34
2022-08-08T19:55:58.365Z,96465.13
2022-08-08T19:58:02.404Z,96168.19
2022-08-08T20:00:11.037Z,96464.50
2022-08-08T20:02:32.348Z,96471.44
2022-08-08T20:04:35.500Z,96464.31
2022-08-08T20:06:38.355Z,96465.66
2022-08-08T20:08:48.147Z,96464.38
2022-08-08T20:10:51.561Z,96467.59
2022-08-08T20:13:11.335Z,96334.19
2022-08-08T20:15:19.247Z,96459.81
2022-08-08T20:17:27.823Z,96465.88
2022-08-08T20:19:34.185Z,96458.03
2022-08-08T20:21:38.433Z,96458.25
2022-08-08T20:23:41.378Z,96450.00
2022-08-08T20:25:44.417Z,96457.91
2022-08-08T20:27:50.217Z,96386.66
2022-08-08T20:30:00.912Z,96464.59
2022-08-08T20:32:09.964Z,96310.06
2022-08-08T20:34:29.014Z,96460.41
2022-08-08T20:36:35.260Z,96429.41
2022-08-08T20:38:41.635Z,96468.59
2022-08-08T20:40:51.209Z,96468.75
2022-08-08T20:42:56.090Z,96462.66
2022-08-08T20:45:00.287Z,96471.69
2022-08-08T20:47:03.673Z,96470.13
2022-08-08T20:49:07.308Z,96463.06
2022-08-08T20:51:14.438Z,96467.13
2022-08-08T20:53:57.841Z,96395.41
2022-08-08T20:55:42.585Z,96475.88
2022-08-08T20:57:47.785Z,96437.97
2022-08-08T20:59:54.548Z,96470.50
2022-08-08T21:02:07.782Z,96466.59
2022-08-08T21:04:14.197Z,96472.06
2022-08-08T21:06:17.178Z,96440.72
2022-08-08T21:08:37.167Z,96474.53
2022-08-08T21:10:42.763Z,96467.91
2022-08-08T21:12:48.423Z,96308.22
2022-08-08T21:14:56.956Z,96446.25
2022-08-08T21:17:06.781Z,96452.25
2022-08-08T21:19:10.954Z,96488.91
2022-08-08T21:21:19.790Z,96490.50
2022-08-08T21:24:02.633Z,96482.78
2022-08-08T21:26:00.899Z,96468.09
2022-08-08T21:28:09.819Z,96488.41
2022-08-08T21:30:22.055Z,96482.59
2022-08-08T21:32:26.563Z,96482.13
2022-08-08T21:34:29.989Z,96476.94
2022-08-08T21:36:33.209Z,96480.88
2022-08-08T21:38:36.189Z,96482.94
2022-08-08T21:40:39.244Z,96482.56
2022-08-08T21:42:58.248Z,96480.78
2022-08-08T21:45:44.425Z,96481.47
2022-08-08T21:48:04.362Z,96439.03
2022-08-08T21:49:47.882Z,96475.97
2022-08-08T21:54:31.636Z,96491.81
2022-08-08T21:54:53.842Z,96486.28
2022-08-08T21:56:42.126Z,96365.94
2022-08-08T21:58:46.383Z,96490.78
2022-08-08T22:00:57.608Z,96485.13
2022-08-08T22:03:07.125Z,96484.50
2022-08-08T22:05:11.890Z,96486.00
2022-08-08T22:07:17.818Z,96490.47
2022-08-08T22:09:26.840Z,96480.22
2022-08-08T22:12:02.274Z,96394.38
2022-08-08T22:14:03.039Z,96488.13
2022-08-08T22:16:09.883Z,96433.75
2022-08-08T22:18:12.728Z,96477.81
2022-08-08T22:20:23.430Z,96485.88
2022-08-08T22:22:29.185Z,96487.03
2022-08-08T22:24:33.662Z,96484.28
2022-08-08T22:27:02.684Z,96486.47
2022-08-08T22:29:14.756Z,96444.47
2022-08-08T22:31:26.450Z,96372.78
2022-08-08T22:34:12.339Z,96484.38
2022-08-08T22:36:04.675Z,96507.09
2022-08-08T22:38:17.799Z,96440.41
2022-08-08T22:40:20.832Z,96487.28
2022-08-08T22:42:31.451Z,96488.25
2022-08-08T22:44:35.036Z,96491.00
2022-08-08T22:46:39.809Z,96490.34
2022-08-08T22:48:45.523Z,96493.53
2022-08-08T22:50:48.414Z,96487.38
2022-08-08T22:54:23.809Z,96475.09
2022-08-08T22:55:16.390Z,96424.47
2022-08-08T22:57:19.145Z,96495.13
2022-08-08T22:59:21.897Z,96489.69
2022-08-08T23:02:01.800Z,96496.66
2022-08-08T23:03:53.672Z,96488.78
2022-08-08T23:06:00.098Z,96497.47
2022-08-08T23:08:04.721Z,96490.69
2022-08-08T23:10:09.735Z,96486.44
2022-08-08T23:12:28.897Z,96325.84
2022-08-08T23:14:35.210Z,96489.94
2022-08-08T23:16:43.542Z,96490.91
2022-08-08T23:18:47.101Z,96492.06
2022-08-08T23:20:54.769Z,96492.56
2022-08-08T23:22:58.360Z,96483.88
2022-08-08T23:25:03.866Z,96484.69
2022-08-08T23:27:07.641Z,96331.88
2022-08-08T23:29:10.933Z,96488.09
2022-08-08T23:31:14.040Z,96484.38
2022-08-08T23:33:35.944Z,96442.88
2022-08-08T23:36:07.489Z,96473.84
2022-08-08T23:38:04.807Z,96474.38
2022-08-08T23:40:10.500Z,96363.97
2022-08-08T23:42:13.419Z,96474.19
2022-08-08T23:44:16.196Z,96475.19
2022-08-08T23:49:02.104Z,96472.38
2022-08-08T23:49:04.917Z,96474.19
2022-08-08T23:51:12.909Z,96468.25
2022-08-08T23:54:05.169Z,96407.09
2022-08-08T23:55:54.732Z,96435.94
2022-08-08T23:58:01.815Z,96460.47
